sensor_id;sensor_type;location;lat;lon;timestamp;P1;durP1;ratioP1;P2;durP2;ratioP2
68870;SDS011;55906;52.278;6.808;2023-08-08T00:01:54;8.52;;;4.60;;
68870;SDS011;55906;52.278;6.808;2023-08-08T00:04:20;9.45;;;5.47;;
68870;SDS011;55906;52.278;6.808;2023-08-08T00:06:47;8.65;;;4.82;;
68870;SDS011;55906;52.278;6.808;2023-08-08T00:09:13;7.20;;;4.97;;
68870;SDS011;55906;52.278;6.808;2023-08-08T00:11:41;9.37;;;5.47;;
68870;SDS011;55906;52.278;6.808;2023-08-08T00:14:08;8.10;;;5.32;;
68870;SDS011;55906;52.278;6.808;2023-08-08T00:16:35;11.02;;;6.55;;
68870;SDS011;55906;52.278;6.808;2023-08-08T00:19:01;10.18;;;6.00;;
68870;SDS011;55906;52.278;6.808;2023-08-08T00:21:28;10.02;;;6.18;;
68870;SDS011;55906;52.278;6.808;2023-08-08T00:23:55;10.17;;;6.27;;
68870;SDS011;55906;52.278;6.808;2023-08-08T00:26:21;9.32;;;6.00;;
68870;SDS011;55906;52.278;6.808;2023-08-08T00:28:49;10.25;;;5.97;;
68870;SDS011;55906;52.278;6.808;2023-08-08T00:31:16;13.90;;;6.35;;
68870;SDS011;55906;52.278;6.808;2023-08-08T00:33:44;9.35;;;6.30;;
68870;SDS011;55906;52.278;6.808;2023-08-08T00:36:11;10.53;;;6.20;;
68870;SDS011;55906;52.278;6.808;2023-08-08T00:38:38;13.50;;;6.18;;
68870;SDS011;55906;52.278;6.808;2023-08-08T00:41:04;8.07;;;5.55;;
68870;SDS011;55906;52.278;6.808;2023-08-08T00:43:31;7.85;;;5.70;;
68870;SDS011;55906;52.278;6.808;2023-08-08T00:45:59;8.25;;;5.93;;
68870;SDS011;55906;52.278;6.808;2023-08-08T00:48:26;9.03;;;5.10;;
68870;SDS011;55906;52.278;6.808;2023-08-08T00:50:53;10.50;;;5.28;;
68870;SDS011;55906;52.278;6.808;2023-08-08T00:53:19;8.20;;;5.85;;
68870;SDS011;55906;52.278;6.808;2023-08-08T00:55:48;7.80;;;5.47;;
68870;SDS011;55906;52.278;6.808;2023-08-08T00:58:14;7.80;;;5.68;;
68870;SDS011;55906;52.278;6.808;2023-08-08T01:00:42;9.00;;;4.90;;
68870;SDS011;55906;52.278;6.808;2023-08-08T01:03:10;7.80;;;4.45;;
68870;SDS011;55906;52.278;6.808;2023-08-08T01:05:38;11.68;;;5.53;;
68870;SDS011;55906;52.278;6.808;2023-08-08T01:08:10;7.43;;;5.05;;
68870;SDS011;55906;52.278;6.808;2023-08-08T01:10:41;6.78;;;4.65;;
68870;SDS011;55906;52.278;6.808;2023-08-08T01:13:10;10.67;;;4.90;;
68870;SDS011;55906;52.278;6.808;2023-08-08T01:15:41;8.57;;;5.10;;
68870;SDS011;55906;52.278;6.808;2023-08-08T01:18:09;8.15;;;5.45;;
68870;SDS011;55906;52.278;6.808;2023-08-08T01:20:37;9.48;;;5.63;;
68870;SDS011;55906;52.278;6.808;2023-08-08T01:23:09;12.18;;;5.88;;
68870;SDS011;55906;52.278;6.808;2023-08-08T01:25:40;9.43;;;4.80;;
68870;SDS011;55906;52.278;6.808;2023-08-08T01:28:07;8.63;;;5.43;;
68870;SDS011;55906;52.278;6.808;2023-08-08T01:30:34;9.15;;;5.03;;
68870;SDS011;55906;52.278;6.808;2023-08-08T01:33:01;11.13;;;5.22;;
68870;SDS011;55906;52.278;6.808;2023-08-08T01:35:29;7.88;;;5.72;;
68870;SDS011;55906;52.278;6.808;2023-08-08T01:38:00;11.43;;;5.37;;
68870;SDS011;55906;52.278;6.808;2023-08-08T01:40:34;9.02;;;5.38;;
68870;SDS011;55906;52.278;6.808;2023-08-08T01:43:04;10.57;;;5.88;;
68870;SDS011;55906;52.278;6.808;2023-08-08T01:45:31;9.45;;;5.43;;
68870;SDS011;55906;52.278;6.808;2023-08-08T01:47:57;11.40;;;5.97;;
68870;SDS011;55906;52.278;6.808;2023-08-08T01:50:24;8.27;;;5.60;;
68870;SDS011;55906;52.278;6.808;2023-08-08T01:52:51;10.18;;;4.97;;
68870;SDS011;55906;52.278;6.808;2023-08-08T01:55:17;11.60;;;6.30;;
68870;SDS011;55906;52.278;6.808;2023-08-08T01:57:44;12.48;;;6.60;;
68870;SDS011;55906;52.278;6.808;2023-08-08T02:00:13;11.00;;;6.22;;
68870;SDS011;55906;52.278;6.808;2023-08-08T02:02:40;9.43;;;5.50;;
68870;SDS011;55906;52.278;6.808;2023-08-08T02:05:06;11.60;;;6.15;;
68870;SDS011;55906;52.278;6.808;2023-08-08T02:07:33;12.15;;;6.13;;
68870;SDS011;55906;52.278;6.808;2023-08-08T02:10:00;11.75;;;6.63;;
68870;SDS011;55906;52.278;6.808;2023-08-08T02:12:26;12.52;;;6.30;;
68870;SDS011;55906;52.278;6.808;2023-08-08T02:14:54;10.83;;;6.63;;
68870;SDS011;55906;52.278;6.808;2023-08-08T02:17:21;12.25;;;6.88;;
68870;SDS011;55906;52.278;6.808;2023-08-08T02:19:48;15.00;;;6.95;;
68870;SDS011;55906;52.278;6.808;2023-08-08T02:22:16;10.02;;;6.72;;
68870;SDS011;55906;52.278;6.808;2023-08-08T02:24:43;10.68;;;6.60;;
68870;SDS011;55906;52.278;6.808;2023-08-08T02:27:11;11.60;;;6.03;;
68870;SDS011;55906;52.278;6.808;2023-08-08T02:29:37;10.63;;;5.97;;
68870;SDS011;55906;52.278;6.808;2023-08-08T02:32:04;14.27;;;6.78;;
68870;SDS011;55906;52.278;6.808;2023-08-08T02:34:33;14.85;;;7.20;;
68870;SDS011;55906;52.278;6.808;2023-08-08T02:36:59;13.52;;;7.40;;
68870;SDS011;55906;52.278;6.808;2023-08-08T02:39:26;14.27;;;6.67;;
68870;SDS011;55906;52.278;6.808;2023-08-08T02:41:52;11.77;;;6.63;;
68870;SDS011;55906;52.278;6.808;2023-08-08T02:44:19;13.80;;;7.18;;
68870;SDS011;55906;52.278;6.808;2023-08-08T02:46:47;11.52;;;6.80;;
68870;SDS011;55906;52.278;6.808;2023-08-08T02:49:14;13.68;;;6.72;;
68870;SDS011;55906;52.278;6.808;2023-08-08T02:51:42;9.40;;;5.53;;
68870;SDS011;55906;52.278;6.808;2023-08-08T02:54:08;11.48;;;6.70;;
68870;SDS011;55906;52.278;6.808;2023-08-08T02:56:35;12.30;;;6.78;;
68870;SDS011;55906;52.278;6.808;2023-08-08T02:59:02;11.65;;;6.45;;
68870;SDS011;55906;52.278;6.808;2023-08-08T03:01:28;13.57;;;6.93;;
68870;SDS011;55906;52.278;6.808;2023-08-08T03:03:55;11.97;;;6.43;;
68870;SDS011;55906;52.278;6.808;2023-08-08T03:06:21;12.80;;;6.63;;
68870;SDS011;55906;52.278;6.808;2023-08-08T03:08:49;15.85;;;6.90;;
68870;SDS011;55906;52.278;6.808;2023-08-08T03:11:16;11.55;;;6.43;;
68870;SDS011;55906;52.278;6.808;2023-08-08T03:13:42;14.68;;;8.05;;
68870;SDS011;55906;52.278;6.808;2023-08-08T03:16:09;11.20;;;6.40;;
68870;SDS011;55906;52.278;6.808;2023-08-08T03:18:36;14.68;;;7.95;;
68870;SDS011;55906;52.278;6.808;2023-08-08T03:21:02;15.60;;;7.68;;
68870;SDS011;55906;52.278;6.808;2023-08-08T03:23:29;13.68;;;6.65;;
68870;SDS011;55906;52.278;6.808;2023-08-08T03:25:57;12.60;;;7.80;;
68870;SDS011;55906;52.278;6.808;2023-08-08T03:28:24;12.03;;;6.60;;
68870;SDS011;55906;52.278;6.808;2023-08-08T03:30:50;12.57;;;7.18;;
68870;SDS011;55906;52.278;6.808;2023-08-08T03:33:17;15.45;;;7.38;;
68870;SDS011;55906;52.278;6.808;2023-08-08T03:35:44;13.57;;;7.03;;
68870;SDS011;55906;52.278;6.808;2023-08-08T03:38:10;13.35;;;7.63;;
68870;SDS011;55906;52.278;6.808;2023-08-08T03:40:37;11.17;;;6.57;;
68870;SDS011;55906;52.278;6.808;2023-08-08T03:43:05;10.30;;;6.65;;
68870;SDS011;55906;52.278;6.808;2023-08-08T03:45:31;13.27;;;6.80;;
68870;SDS011;55906;52.278;6.808;2023-08-08T03:47:58;14.05;;;8.00;;
68870;SDS011;55906;52.278;6.808;2023-08-08T03:50:25;12.98;;;7.60;;
68870;SDS011;55906;52.278;6.808;2023-08-08T03:52:51;15.50;;;7.53;;
68870;SDS011;55906;52.278;6.808;2023-08-08T03:55:18;14.77;;;6.57;;
68870;SDS011;55906;52.278;6.808;2023-08-08T03:57:45;12.32;;;7.20;;
68870;SDS011;55906;52.278;6.808;2023-08-08T04:00:13;13.93;;;7.13;;
68870;SDS011;55906;52.278;6.808;2023-08-08T04:02:40;16.00;;;8.40;;
68870;SDS011;55906;52.278;6.808;2023-08-08T04:05:07;16.50;;;7.50;;
68870;SDS011;55906;52.278;6.808;2023-08-08T04:07:34;11.23;;;6.93;;
68870;SDS011;55906;52.278;6.808;2023-08-08T04:10:01;14.35;;;7.55;;
68870;SDS011;55906;52.278;6.808;2023-08-08T04:12:27;11.45;;;6.65;;
68870;SDS011;55906;52.278;6.808;2023-08-08T04:14:54;14.75;;;7.20;;
68870;SDS011;55906;52.278;6.808;2023-08-08T04:17:22;15.00;;;7.53;;
68870;SDS011;55906;52.278;6.808;2023-08-08T04:19:49;14.00;;;7.38;;
68870;SDS011;55906;52.278;6.808;2023-08-08T04:22:16;14.45;;;7.88;;
68870;SDS011;55906;52.278;6.808;2023-08-08T04:24:42;13.25;;;7.13;;
68870;SDS011;55906;52.278;6.808;2023-08-08T04:27:09;13.02;;;7.38;;
68870;SDS011;55906;52.278;6.808;2023-08-08T04:29:36;12.80;;;7.70;;
68870;SDS011;55906;52.278;6.808;2023-08-08T04:32:03;12.00;;;7.45;;
68870;SDS011;55906;52.278;6.808;2023-08-08T04:34:31;13.43;;;7.72;;
68870;SDS011;55906;52.278;6.808;2023-08-08T04:36:58;12.23;;;7.00;;
68870;SDS011;55906;52.278;6.808;2023-08-08T04:39:24;11.50;;;6.90;;
68870;SDS011;55906;52.278;6.808;2023-08-08T04:41:51;14.43;;;8.20;;
68870;SDS011;55906;52.278;6.808;2023-08-08T04:44:18;12.82;;;7.10;;
68870;SDS011;55906;52.278;6.808;2023-08-08T04:46:44;14.73;;;7.82;;
68870;SDS011;55906;52.278;6.808;2023-08-08T04:49:11;13.07;;;7.18;;
68870;SDS011;55906;52.278;6.808;2023-08-08T04:51:39;15.48;;;7.75;;
68870;SDS011;55906;52.278;6.808;2023-08-08T04:54:05;15.57;;;7.20;;
68870;SDS011;55906;52.278;6.808;2023-08-08T04:56:32;15.60;;;7.00;;
68870;SDS011;55906;52.278;6.808;2023-08-08T04:58:59;16.50;;;7.32;;
68870;SDS011;55906;52.278;6.808;2023-08-08T05:01:25;14.48;;;6.78;;
68870;SDS011;55906;52.278;6.808;2023-08-08T05:03:52;16.02;;;7.10;;
68870;SDS011;55906;52.278;6.808;2023-08-08T05:06:19;12.87;;;7.03;;
68870;SDS011;55906;52.278;6.808;2023-08-08T05:08:48;13.55;;;6.30;;
68870;SDS011;55906;52.278;6.808;2023-08-08T05:11:15;12.05;;;6.38;;
68870;SDS011;55906;52.278;6.808;2023-08-08T05:13:41;10.90;;;6.22;;
68870;SDS011;55906;52.278;6.808;2023-08-08T05:16:08;11.18;;;6.05;;
68870;SDS011;55906;52.278;6.808;2023-08-08T05:18:35;12.70;;;6.50;;
68870;SDS011;55906;52.278;6.808;2023-08-08T05:21:01;15.15;;;6.57;;
68870;SDS011;55906;52.278;6.808;2023-08-08T05:23:28;13.88;;;5.97;;
68870;SDS011;55906;52.278;6.808;2023-08-08T05:25:56;11.27;;;6.22;;
68870;SDS011;55906;52.278;6.808;2023-08-08T05:28:23;13.80;;;6.65;;
68870;SDS011;55906;52.278;6.808;2023-08-08T05:30:49;9.70;;;6.10;;
68870;SDS011;55906;52.278;6.808;2023-08-08T05:33:16;11.77;;;5.40;;
68870;SDS011;55906;52.278;6.808;2023-08-08T05:35:43;12.10;;;6.28;;
68870;SDS011;55906;52.278;6.808;2023-08-08T05:38:09;12.98;;;7.00;;
68870;SDS011;55906;52.278;6.808;2023-08-08T05:40:36;16.25;;;7.72;;
68870;SDS011;55906;52.278;6.808;2023-08-08T05:43:04;10.27;;;6.03;;
68870;SDS011;55906;52.278;6.808;2023-08-08T05:45:30;13.23;;;6.45;;
68870;SDS011;55906;52.278;6.808;2023-08-08T05:47:57;10.63;;;6.47;;
68870;SDS011;55906;52.278;6.808;2023-08-08T05:50:26;12.05;;;5.90;;
68870;SDS011;55906;52.278;6.808;2023-08-08T05:52:52;12.85;;;6.50;;
68870;SDS011;55906;52.278;6.808;2023-08-08T05:55:19;12.07;;;5.77;;
68870;SDS011;55906;52.278;6.808;2023-08-08T05:57:46;11.35;;;5.85;;
68870;SDS011;55906;52.278;6.808;2023-08-08T06:00:14;11.73;;;5.90;;
68870;SDS011;55906;52.278;6.808;2023-08-08T06:02:41;10.80;;;5.45;;
68870;SDS011;55906;52.278;6.808;2023-08-08T06:05:08;11.48;;;6.22;;
68870;SDS011;55906;52.278;6.808;2023-08-08T06:07:35;10.37;;;5.93;;
68870;SDS011;55906;52.278;6.808;2023-08-08T06:10:01;16.42;;;6.50;;
68870;SDS011;55906;52.278;6.808;2023-08-08T06:12:28;13.73;;;5.80;;
68870;SDS011;55906;52.278;6.808;2023-08-08T06:14:55;14.05;;;6.65;;
68870;SDS011;55906;52.278;6.808;2023-08-08T06:17:23;12.75;;;6.38;;
68870;SDS011;55906;52.278;6.808;2023-08-08T06:19:49;13.07;;;5.77;;
68870;SDS011;55906;52.278;6.808;2023-08-08T06:22:16;10.65;;;6.32;;
68870;SDS011;55906;52.278;6.808;2023-08-08T06:24:43;12.70;;;6.65;;
68870;SDS011;55906;52.278;6.808;2023-08-08T06:27:10;13.07;;;5.50;;
68870;SDS011;55906;52.278;6.808;2023-08-08T06:29:36;12.63;;;8.15;;
68870;SDS011;55906;52.278;6.808;2023-08-08T06:32:03;10.77;;;6.30;;
68870;SDS011;55906;52.278;6.808;2023-08-08T06:34:31;13.52;;;6.10;;
68870;SDS011;55906;52.278;6.808;2023-08-08T06:36:58;9.43;;;5.50;;
68870;SDS011;55906;52.278;6.808;2023-08-08T06:39:25;13.57;;;6.50;;
68870;SDS011;55906;52.278;6.808;2023-08-08T06:41:51;11.80;;;5.72;;
68870;SDS011;55906;52.278;6.808;2023-08-08T06:44:18;12.03;;;5.57;;
68870;SDS011;55906;52.278;6.808;2023-08-08T06:46:45;13.40;;;4.63;;
68870;SDS011;55906;52.278;6.808;2023-08-08T06:49:12;11.55;;;4.80;;
68870;SDS011;55906;52.278;6.808;2023-08-08T06:51:40;10.85;;;4.93;;
68870;SDS011;55906;52.278;6.808;2023-08-08T06:54:06;11.77;;;5.60;;
68870;SDS011;55906;52.278;6.808;2023-08-08T06:56:33;8.83;;;4.23;;
68870;SDS011;55906;52.278;6.808;2023-08-08T06:59:00;9.48;;;4.10;;
68870;SDS011;55906;52.278;6.808;2023-08-08T07:01:26;10.00;;;4.43;;
68870;SDS011;55906;52.278;6.808;2023-08-08T07:03:53;10.00;;;3.92;;
68870;SDS011;55906;52.278;6.808;2023-08-08T07:06:20;9.70;;;4.15;;
68870;SDS011;55906;52.278;6.808;2023-08-08T07:08:48;9.90;;;4.27;;
68870;SDS011;55906;52.278;6.808;2023-08-08T07:11:14;9.88;;;3.55;;
68870;SDS011;55906;52.278;6.808;2023-08-08T07:13:41;6.97;;;3.67;;
68870;SDS011;55906;52.278;6.808;2023-08-08T07:16:08;7.20;;;3.58;;
68870;SDS011;55906;52.278;6.808;2023-08-08T07:18:34;10.75;;;3.53;;
68870;SDS011;55906;52.278;6.808;2023-08-08T07:21:02;6.70;;;3.73;;
68870;SDS011;55906;52.278;6.808;2023-08-08T07:23:30;8.75;;;3.47;;
68870;SDS011;55906;52.278;6.808;2023-08-08T07:25:58;8.85;;;3.95;;
68870;SDS011;55906;52.278;6.808;2023-08-08T07:28:25;5.43;;;3.30;;
68870;SDS011;55906;52.278;6.808;2023-08-08T07:30:51;9.13;;;3.28;;
68870;SDS011;55906;52.278;6.808;2023-08-08T07:33:18;9.53;;;3.10;;
68870;SDS011;55906;52.278;6.808;2023-08-08T07:35:45;7.60;;;3.58;;
68870;SDS011;55906;52.278;6.808;2023-08-08T07:38:11;7.32;;;3.47;;
68870;SDS011;55906;52.278;6.808;2023-08-08T07:40:38;7.05;;;3.03;;
68870;SDS011;55906;52.278;6.808;2023-08-08T07:43:07;8.50;;;3.78;;
68870;SDS011;55906;52.278;6.808;2023-08-08T07:45:34;9.67;;;2.83;;
68870;SDS011;55906;52.278;6.808;2023-08-08T07:48:00;9.35;;;3.33;;
68870;SDS011;55906;52.278;6.808;2023-08-08T07:50:27;11.10;;;3.72;;
68870;SDS011;55906;52.278;6.808;2023-08-08T07:52:53;6.25;;;3.17;;
68870;SDS011;55906;52.278;6.808;2023-08-08T07:55:20;8.10;;;3.13;;
68870;SDS011;55906;52.278;6.808;2023-08-08T07:57:47;8.17;;;2.83;;
68870;SDS011;55906;52.278;6.808;2023-08-08T08:00:16;5.32;;;2.50;;
68870;SDS011;55906;52.278;6.808;2023-08-08T08:02:43;6.85;;;3.17;;
68870;SDS011;55906;52.278;6.808;2023-08-08T08:05:11;8.48;;;3.53;;
68870;SDS011;55906;52.278;6.808;2023-08-08T08:07:39;10.63;;;3.00;;
68870;SDS011;55906;52.278;6.808;2023-08-08T08:10:06;6.03;;;2.77;;
68870;SDS011;55906;52.278;6.808;2023-08-08T08:12:35;7.30;;;2.42;;
68870;SDS011;55906;52.278;6.808;2023-08-08T08:15:02;7.43;;;2.78;;
68870;SDS011;55906;52.278;6.808;2023-08-08T08:17:31;9.25;;;2.70;;
68870;SDS011;55906;52.278;6.808;2023-08-08T08:19:57;5.47;;;2.80;;
68870;SDS011;55906;52.278;6.808;2023-08-08T08:22:24;6.40;;;2.43;;
68870;SDS011;55906;52.278;6.808;2023-08-08T08:24:50;7.07;;;3.03;;
68870;SDS011;55906;52.278;6.808;2023-08-08T08:27:17;4.90;;;2.67;;
68870;SDS011;55906;52.278;6.808;2023-08-08T08:29:44;8.38;;;3.30;;
68870;SDS011;55906;52.278;6.808;2023-08-08T08:32:11;8.32;;;2.80;;
68870;SDS011;55906;52.278;6.808;2023-08-08T08:34:39;5.87;;;2.43;;
68870;SDS011;55906;52.278;6.808;2023-08-08T08:37:05;10.43;;;2.42;;
68870;SDS011;55906;52.278;6.808;2023-08-08T08:39:32;6.82;;;2.60;;
68870;SDS011;55906;52.278;6.808;2023-08-08T08:41:59;5.75;;;2.53;;
68870;SDS011;55906;52.278;6.808;2023-08-08T08:44:29;9.25;;;2.75;;
68870;SDS011;55906;52.278;6.808;2023-08-08T08:46:58;5.20;;;2.30;;
68870;SDS011;55906;52.278;6.808;2023-08-08T08:49:26;7.25;;;2.63;;
68870;SDS011;55906;52.278;6.808;2023-08-08T08:51:56;7.25;;;2.42;;
68870;SDS011;55906;52.278;6.808;2023-08-08T08:54:25;5.90;;;2.30;;
68870;SDS011;55906;52.278;6.808;2023-08-08T08:56:54;4.43;;;2.42;;
68870;SDS011;55906;52.278;6.808;2023-08-08T08:59:21;5.87;;;1.90;;
68870;SDS011;55906;52.278;6.808;2023-08-08T09:01:48;6.43;;;1.90;;
68870;SDS011;55906;52.278;6.808;2023-08-08T09:04:16;6.05;;;2.10;;
68870;SDS011;55906;52.278;6.808;2023-08-08T09:06:46;6.35;;;1.90;;
68870;SDS011;55906;52.278;6.808;2023-08-08T09:09:16;6.55;;;1.83;;
68870;SDS011;55906;52.278;6.808;2023-08-08T09:11:47;6.53;;;1.70;;
68870;SDS011;55906;52.278;6.808;2023-08-08T09:14:15;7.10;;;2.00;;
68870;SDS011;55906;52.278;6.808;2023-08-08T09:16:43;8.93;;;2.40;;
68870;SDS011;55906;52.278;6.808;2023-08-08T09:19:10;4.40;;;1.73;;
68870;SDS011;55906;52.278;6.808;2023-08-08T09:21:36;5.35;;;2.28;;
68870;SDS011;55906;52.278;6.808;2023-08-08T09:24:03;6.03;;;2.20;;
68870;SDS011;55906;52.278;6.808;2023-08-08T09:26:32;6.38;;;1.95;;
68870;SDS011;55906;52.278;6.808;2023-08-08T09:28:59;3.90;;;1.95;;
68870;SDS011;55906;52.278;6.808;2023-08-08T09:31:26;5.25;;;1.58;;
68870;SDS011;55906;52.278;6.808;2023-08-08T09:33:53;4.07;;;2.03;;
68870;SDS011;55906;52.278;6.808;2023-08-08T09:36:20;4.70;;;1.60;;
68870;SDS011;55906;52.278;6.808;2023-08-08T09:38:48;5.25;;;1.70;;
68870;SDS011;55906;52.278;6.808;2023-08-08T09:41:15;6.50;;;2.10;;
68870;SDS011;55906;52.278;6.808;2023-08-08T09:43:44;4.95;;;1.90;;
68870;SDS011;55906;52.278;6.808;2023-08-08T09:46:11;7.55;;;2.38;;
68870;SDS011;55906;52.278;6.808;2023-08-08T09:48:38;6.07;;;1.87;;
68870;SDS011;55906;52.278;6.808;2023-08-08T09:51:06;7.05;;;1.58;;
68870;SDS011;55906;52.278;6.808;2023-08-08T09:53:34;4.90;;;2.00;;
68870;SDS011;55906;52.278;6.808;2023-08-08T09:56:01;5.60;;;1.83;;
68870;SDS011;55906;52.278;6.808;2023-08-08T09:58:29;6.95;;;1.85;;
68870;SDS011;55906;52.278;6.808;2023-08-08T10:00:57;6.60;;;2.27;;
68870;SDS011;55906;52.278;6.808;2023-08-08T10:03:24;5.72;;;1.80;;
68870;SDS011;55906;52.278;6.808;2023-08-08T10:05:51;4.43;;;1.65;;
68870;SDS011;55906;52.278;6.808;2023-08-08T10:08:18;6.13;;;1.73;;
68870;SDS011;55906;52.278;6.808;2023-08-08T10:10:46;5.82;;;2.13;;
68870;SDS011;55906;52.278;6.808;2023-08-08T10:13:18;4.70;;;2.00;;
68870;SDS011;55906;52.278;6.808;2023-08-08T10:15:46;6.07;;;1.60;;
68870;SDS011;55906;52.278;6.808;2023-08-08T10:18:14;6.72;;;2.15;;
68870;SDS011;55906;52.278;6.808;2023-08-08T10:20:42;4.38;;;1.80;;
68870;SDS011;55906;52.278;6.808;2023-08-08T10:23:09;4.25;;;2.30;;
68870;SDS011;55906;52.278;6.808;2023-08-08T10:25:36;5.03;;;2.10;;
68870;SDS011;55906;52.278;6.808;2023-08-08T10:28:03;6.68;;;1.80;;
68870;SDS011;55906;52.278;6.808;2023-08-08T10:30:41;7.82;;;2.30;;
68870;SDS011;55906;52.278;6.808;2023-08-08T10:33:16;6.32;;;2.33;;
68870;SDS011;55906;52.278;6.808;2023-08-08T10:35:50;5.45;;;1.83;;
68870;SDS011;55906;52.278;6.808;2023-08-08T10:38:21;4.43;;;1.93;;
68870;SDS011;55906;52.278;6.808;2023-08-08T10:40:51;4.85;;;1.88;;
68870;SDS011;55906;52.278;6.808;2023-08-08T10:43:24;5.07;;;1.88;;
68870;SDS011;55906;52.278;6.808;2023-08-08T10:45:52;4.70;;;1.92;;
68870;SDS011;55906;52.278;6.808;2023-08-08T10:48:20;5.07;;;2.25;;
68870;SDS011;55906;52.278;6.808;2023-08-08T10:50:46;5.10;;;2.07;;
68870;SDS011;55906;52.278;6.808;2023-08-08T10:53:13;4.43;;;2.15;;
68870;SDS011;55906;52.278;6.808;2023-08-08T10:55:40;4.32;;;2.10;;
68870;SDS011;55906;52.278;6.808;2023-08-08T10:58:07;4.97;;;2.00;;
68870;SDS011;55906;52.278;6.808;2023-08-08T11:00:35;4.13;;;1.92;;
68870;SDS011;55906;52.278;6.808;2023-08-08T11:03:04;5.77;;;1.73;;
68870;SDS011;55906;52.278;6.808;2023-08-08T11:05:33;5.32;;;1.90;;
68870;SDS011;55906;52.278;6.808;2023-08-08T11:08:02;4.65;;;2.15;;
68870;SDS011;55906;52.278;6.808;2023-08-08T11:10:34;5.85;;;1.80;;
68870;SDS011;55906;52.278;6.808;2023-08-08T11:13:02;5.18;;;1.80;;
68870;SDS011;55906;52.278;6.808;2023-08-08T11:15:31;4.63;;;1.60;;
68870;SDS011;55906;52.278;6.808;2023-08-08T11:17:59;5.45;;;1.80;;
68870;SDS011;55906;52.278;6.808;2023-08-08T11:20:29;4.65;;;1.85;;
68870;SDS011;55906;52.278;6.808;2023-08-08T11:22:59;4.47;;;1.80;;
68870;SDS011;55906;52.278;6.808;2023-08-08T11:25:27;4.65;;;2.20;;
68870;SDS011;55906;52.278;6.808;2023-08-08T11:27:55;5.40;;;2.00;;
68870;SDS011;55906;52.278;6.808;2023-08-08T11:30:23;4.45;;;2.30;;
68870;SDS011;55906;52.278;6.808;2023-08-08T11:32:54;4.78;;;2.38;;
68870;SDS011;55906;52.278;6.808;2023-08-08T11:35:21;4.32;;;1.95;;
68870;SDS011;55906;52.278;6.808;2023-08-08T11:37:49;5.97;;;2.65;;
68870;SDS011;55906;52.278;6.808;2023-08-08T11:40:19;4.90;;;2.10;;
68870;SDS011;55906;52.278;6.808;2023-08-08T11:42:47;3.65;;;1.95;;
68870;SDS011;55906;52.278;6.808;2023-08-08T11:45:15;5.55;;;2.67;;
68870;SDS011;55906;52.278;6.808;2023-08-08T11:47:43;4.72;;;2.38;;
68870;SDS011;55906;52.278;6.808;2023-08-08T11:50:10;7.00;;;2.22;;
68870;SDS011;55906;52.278;6.808;2023-08-08T11:52:39;6.00;;;2.00;;
68870;SDS011;55906;52.278;6.808;2023-08-08T11:55:07;4.28;;;2.55;;
68870;SDS011;55906;52.278;6.808;2023-08-08T11:57:36;4.25;;;1.77;;
68870;SDS011;55906;52.278;6.808;2023-08-08T12:00:03;4.63;;;1.90;;
68870;SDS011;55906;52.278;6.808;2023-08-08T12:02:32;5.05;;;2.10;;
68870;SDS011;55906;52.278;6.808;2023-08-08T12:05:03;4.73;;;2.00;;
68870;SDS011;55906;52.278;6.808;2023-08-08T12:07:31;3.20;;;1.70;;
68870;SDS011;55906;52.278;6.808;2023-08-08T12:09:59;3.70;;;1.52;;
68870;SDS011;55906;52.278;6.808;2023-08-08T12:12:26;5.25;;;1.67;;
68870;SDS011;55906;52.278;6.808;2023-08-08T12:14:54;4.18;;;1.60;;
68870;SDS011;55906;52.278;6.808;2023-08-08T12:17:21;4.70;;;1.60;;
68870;SDS011;55906;52.278;6.808;2023-08-08T12:19:48;3.47;;;1.48;;
68870;SDS011;55906;52.278;6.808;2023-08-08T12:22:15;4.10;;;1.38;;
68870;SDS011;55906;52.278;6.808;2023-08-08T12:24:42;5.30;;;1.52;;
68870;SDS011;55906;52.278;6.808;2023-08-08T12:27:09;4.07;;;1.35;;
68870;SDS011;55906;52.278;6.808;2023-08-08T12:29:36;7.17;;;1.40;;
68870;SDS011;55906;52.278;6.808;2023-08-08T12:32:04;4.15;;;1.42;;
68870;SDS011;55906;52.278;6.808;2023-08-08T12:34:34;3.10;;;1.42;;
68870;SDS011;55906;52.278;6.808;2023-08-08T12:37:00;5.50;;;1.70;;
68870;SDS011;55906;52.278;6.808;2023-08-08T12:39:27;4.18;;;1.60;;
68870;SDS011;55906;52.278;6.808;2023-08-08T12:41:54;3.20;;;1.53;;
68870;SDS011;55906;52.278;6.808;2023-08-08T12:44:21;5.38;;;1.55;;
68870;SDS011;55906;52.278;6.808;2023-08-08T12:46:48;3.80;;;1.80;;
68870;SDS011;55906;52.278;6.808;2023-08-08T12:49:16;3.75;;;1.70;;
68870;SDS011;55906;52.278;6.808;2023-08-08T12:51:43;5.22;;;1.60;;
68870;SDS011;55906;52.278;6.808;2023-08-08T12:54:10;3.67;;;1.60;;
68870;SDS011;55906;52.278;6.808;2023-08-08T12:56:36;6.55;;;1.30;;
68870;SDS011;55906;52.278;6.808;2023-08-08T12:59:03;3.45;;;1.30;;
68870;SDS011;55906;52.278;6.808;2023-08-08T13:01:30;3.38;;;1.27;;
68870;SDS011;55906;52.278;6.808;2023-08-08T13:03:57;3.38;;;1.60;;
68870;SDS011;55906;52.278;6.808;2023-08-08T13:06:25;4.53;;;1.40;;
68870;SDS011;55906;52.278;6.808;2023-08-08T13:08:52;3.85;;;1.30;;
68870;SDS011;55906;52.278;6.808;2023-08-08T13:11:19;3.78;;;1.55;;
68870;SDS011;55906;52.278;6.808;2023-08-08T13:13:45;4.65;;;1.30;;
68870;SDS011;55906;52.278;6.808;2023-08-08T13:16:12;3.28;;;1.38;;
68870;SDS011;55906;52.278;6.808;2023-08-08T13:18:39;4.07;;;1.10;;
68870;SDS011;55906;52.278;6.808;2023-08-08T13:21:06;3.95;;;1.23;;
68870;SDS011;55906;52.278;6.808;2023-08-08T13:23:34;3.10;;;1.10;;
68870;SDS011;55906;52.278;6.808;2023-08-08T13:26:01;3.33;;;1.40;;
68870;SDS011;55906;52.278;6.808;2023-08-08T13:28:28;4.38;;;1.10;;
68870;SDS011;55906;52.278;6.808;2023-08-08T13:30:55;3.87;;;1.43;;
68870;SDS011;55906;52.278;6.808;2023-08-08T13:33:22;3.83;;;1.60;;
68870;SDS011;55906;52.278;6.808;2023-08-08T13:35:49;4.40;;;1.70;;
68870;SDS011;55906;52.278;6.808;2023-08-08T13:38:15;3.35;;;1.35;;
68870;SDS011;55906;52.278;6.808;2023-08-08T13:40:43;4.95;;;1.88;;
68870;SDS011;55906;52.278;6.808;2023-08-08T13:43:10;3.70;;;1.60;;
68870;SDS011;55906;52.278;6.808;2023-08-08T13:45:37;4.53;;;1.40;;
68870;SDS011;55906;52.278;6.808;2023-08-08T13:48:04;3.30;;;1.55;;
68870;SDS011;55906;52.278;6.808;2023-08-08T13:50:31;3.72;;;1.42;;
68870;SDS011;55906;52.278;6.808;2023-08-08T13:52:57;3.55;;;1.48;;
68870;SDS011;55906;52.278;6.808;2023-08-08T13:55:24;6.07;;;1.37;;
68870;SDS011;55906;52.278;6.808;2023-08-08T13:57:53;3.40;;;1.35;;
68870;SDS011;55906;52.278;6.808;2023-08-08T14:00:20;3.92;;;1.50;;
68870;SDS011;55906;52.278;6.808;2023-08-08T14:02:47;4.13;;;1.50;;
68870;SDS011;55906;52.278;6.808;2023-08-08T14:05:14;4.20;;;1.70;;
68870;SDS011;55906;52.278;6.808;2023-08-08T14:07:40;5.97;;;1.63;;
68870;SDS011;55906;52.278;6.808;2023-08-08T14:10:08;4.47;;;1.40;;
68870;SDS011;55906;52.278;6.808;2023-08-08T14:12:35;7.95;;;1.60;;
68870;SDS011;55906;52.278;6.808;2023-08-08T14:15:03;3.10;;;1.27;;
68870;SDS011;55906;52.278;6.808;2023-08-08T14:17:31;3.15;;;1.50;;
68870;SDS011;55906;52.278;6.808;2023-08-08T14:19:57;5.30;;;1.40;;
68870;SDS011;55906;52.278;6.808;2023-08-08T14:22:24;4.63;;;1.50;;
68870;SDS011;55906;52.278;6.808;2023-08-08T14:24:51;6.25;;;1.83;;
68870;SDS011;55906;52.278;6.808;2023-08-08T14:27:17;3.17;;;1.40;;
68870;SDS011;55906;52.278;6.808;2023-08-08T14:29:44;5.55;;;1.95;;
68870;SDS011;55906;52.278;6.808;2023-08-08T14:32:12;4.83;;;1.30;;
68870;SDS011;55906;52.278;6.808;2023-08-08T14:34:39;5.35;;;1.30;;
68870;SDS011;55906;52.278;6.808;2023-08-08T14:37:06;3.63;;;1.10;;
68870;SDS011;55906;52.278;6.808;2023-08-08T14:39:32;4.18;;;1.40;;
68870;SDS011;55906;52.278;6.808;2023-08-08T14:41:59;3.72;;;1.40;;
68870;SDS011;55906;52.278;6.808;2023-08-08T14:44:27;3.43;;;1.33;;